Time;durP1;ratioP1;P1;durP2;ratioP2;P2;SDS_P1;SDS_P2;PMS_P1;PMS_P2;Temp;Humidity;BMP_temperature;BMP_pressure;BME280_temperature;BME280_humidity;BME280_pressure;Samples;Min_cycle;Max_cycle;Signal;HPM_P1;HPM_P2
2022/05/17 00:00:42;;;;;;;6;1.7;;;;;;;;;;;;;-82
2022/05/17 00:04:08;;;;;;;;;;;;;;;14.41;60.6748;102002.4;;;;-83
2022/05/17 00:08:58;;;;;;;;;;;;;;;14.38;60.37988;102007;;;;-82
2022/05/17 00:14:01;;;;;;;;;;;;;;;14.35;60.27344;102013.3;;;;-83
2022/05/17 00:19:05;;;;;;;;;;;;;;;14.31;60.14453;102010.3;;;;-83
2022/05/17 00:23:56;;;;;;;;;;;;;;;14.26;60.19336;102004.5;;;;-83
2022/05/17 00:29:08;;;;;;;;;;;;;;;14.24;60.17969;102009.3;;;;-81
2022/05/17 00:30:32;;;;;;;5.4;1.7;;;;;;;;;;;;;-83
2022/05/17 00:33:57;;;;;;;;;;;;;;;14.2;60.01758;102006;;;;-84
2022/05/17 00:38:56;;;;;;;;;;;;;;;14.17;59.97949;102005.4;;;;-83
2022/05/17 00:48:58;;;;;;;;;;;;;;;14.05;59.73828;102001;;;;-83
2022/05/17 00:53:57;;;;;;;;;;;;;;;13.99;59.77637;102005.2;;;;-82
2022/05/17 00:59:00;;;;;;;;;;;;;;;13.95;59.67969;102004;;;;-81
2022/05/17 01:00:37;;;;;;;5.5;1.8;;;;;;;;;;;;;-82
2022/05/17 01:03:58;;;;;;;;;;;;;;;13.9;60.14453;102002.3;;;;-82
2022/05/17 01:08:56;;;;;;;;;;;;;;;13.89;60.41309;102000.6;;;;-82
2022/05/17 01:18:56;;;;;;;;;;;;;;;13.87;61.08203;101998;;;;-81
2022/05/17 01:23:58;;;;;;;;;;;;;;;13.9;61.37695;101999.6;;;;-83
2022/05/17 01:29:00;;;;;;;;;;;;;;;13.89;61.81445;102008.8;;;;-81
2022/05/17 01:30:38;;;;;;;4.8;1.7;;;;;;;;;;;;;-83
2022/05/17 01:33:56;;;;;;;;;;;;;;;13.88;61.62109;102012.5;;;;-81
2022/05/17 01:38:56;;;;;;;;;;;;;;;13.88;62.12598;102009.7;;;;-83
2022/05/17 01:43:57;;;;;;;;;;;;;;;13.86;62.30273;102008.5;;;;-83
2022/05/17 01:48:57;;;;;;;;;;;;;;;13.85;62.62695;102009.8;;;;-83
2022/05/17 01:53:56;;;;;;;;;;;;;;;13.85;62.57031;102015.7;;;;-80
2022/05/17 01:59:02;;;;;;;;;;;;;;;13.82;62.32031;102007.4;;;;-82
2022/05/17 02:00:37;;;;;;;5.5;2;;;;;;;;;;;;;-82
2022/05/17 02:04:00;;;;;;;;;;;;;;;13.79;62.43848;102009.8;;;;-81
2022/05/17 02:08:56;;;;;;;;;;;;;;;13.79;62.32617;102014.1;;;;-81
2022/05/17 02:13:58;;;;;;;;;;;;;;;13.78;62.06836;102012.3;;;;-83
2022/05/17 02:18:56;;;;;;;;;;;;;;;13.73;61.88281;102007.8;;;;-83
2022/05/17 02:23:59;;;;;;;;;;;;;;;13.72;62.04785;102019.4;;;;-82
2022/05/17 02:29:08;;;;;;;;;;;;;;;13.69;62.53711;102023.9;;;;-83
2022/05/17 02:30:39;;;;;;;4.8;1.8;;;;;;;;;;;;;-81
2022/05/17 02:33:57;;;;;;;;;;;;;;;13.67;62.79199;102028.6;;;;-80
2022/05/17 02:38:56;;;;;;;;;;;;;;;13.65;63.02344;102027.9;;;;-82
2022/05/17 02:43:57;;;;;;;;;;;;;;;13.62;63.70313;102030.2;;;;-84
2022/05/17 02:48:56;;;;;;;;;;;;;;;13.62;63.79199;102036.1;;;;-81
2022/05/17 02:53:57;;;;;;;;;;;;;;;13.63;63.83887;102030.5;;;;-80
2022/05/17 02:58:57;;;;;;;;;;;;;;;13.64;63.75;102038.2;;;;-82
2022/05/17 03:00:42;;;;;;;6;1.9;;;;;;;;;;;;;-81
2022/05/17 03:03:58;;;;;;;;;;;;;;;13.64;63.81738;102034.1;;;;-82
2022/05/17 03:08:56;;;;;;;;;;;;;;;13.62;63.37793;102040.6;;;;-82
2022/05/17 03:13:58;;;;;;;;;;;;;;;13.63;63.27832;102040.4;;;;-81
2022/05/17 03:23:58;;;;;;;;;;;;;;;13.63;63.36816;102048.6;;;;-82
2022/05/17 03:28:58;;;;;;;;;;;;;;;13.63;63.36914;102047.3;;;;-81
2022/05/17 03:30:43;;;;;;;6.7;1.9;;;;;;;;;;;;;-83
2022/05/17 03:34:01;;;;;;;;;;;;;;;13.62;63.53516;102045;;;;-82
2022/05/17 03:38:59;;;;;;;;;;;;;;;13.64;63.53711;102051.4;;;;-81
2022/05/17 03:43:56;;;;;;;;;;;;;;;13.66;63.34961;102047.1;;;;-82
2022/05/17 03:48:56;;;;;;;;;;;;;;;13.69;63.12012;102044.9;;;;-83
2022/05/17 03:53:56;;;;;;;;;;;;;;;13.72;63.04492;102047.6;;;;-83
2022/05/17 03:58:56;;;;;;;;;;;;;;;13.73;62.68848;102036.1;;;;-83
2022/05/17 04:00:44;;;;;;;4.9;1.7;;;;;;;;;;;;;-83
2022/05/17 04:03:57;;;;;;;;;;;;;;;13.76;62.58008;102051.1;;;;-83
2022/05/17 04:08:56;;;;;;;;;;;;;;;13.78;62.53906;102045.6;;;;-82
2022/05/17 04:13:56;;;;;;;;;;;;;;;13.81;62.55371;102042.6;;;;-84
2022/05/17 04:18:59;;;;;;;;;;;;;;;13.83;62.47852;102044.9;;;;-82
2022/05/17 04:23:56;;;;;;;;;;;;;;;13.86;62.33789;102049.9;;;;-83
2022/05/17 04:28:56;;;;;;;;;;;;;;;13.9;62.47656;102056.7;;;;-81
2022/05/17 04:30:46;;;;;;;5.3;1.8;;;;;;;;;;;;;-82
2022/05/17 04:33:56;;;;;;;;;;;;;;;13.94;62.15723;102064.5;;;;-80
2022/05/17 04:38:56;;;;;;;;;;;;;;;13.98;62.05176;102074.2;;;;-82
2022/05/17 04:43:56;;;;;;;;;;;;;;;14.03;62.13672;102070.9;;;;-80
2022/05/17 04:48:56;;;;;;;;;;;;;;;14.06;61.98438;102070.7;;;;-81
2022/05/17 04:53:56;;;;;;;;;;;;;;;14.12;61.82422;102079.8;;;;-80
2022/05/17 04:58:59;;;;;;;;;;;;;;;14.15;61.99805;102081.3;;;;-82
2022/05/17 05:00:50;;;;;;;5;1.5;;;;;;;;;;;;;-81
2022/05/17 05:03:59;;;;;;;;;;;;;;;14.22;62.25391;102080.8;;;;-82
2022/05/17 05:08:56;;;;;;;;;;;;;;;14.29;62.38672;102091.9;;;;-82
2022/05/17 05:13:56;;;;;;;;;;;;;;;14.36;62.29492;102093.2;;;;-80
2022/05/17 05:18:56;;;;;;;;;;;;;;;14.44;61.65527;102108.3;;;;-81
2022/05/17 05:23:56;;;;;;;;;;;;;;;14.58;61.7998;102115.8;;;;-83
2022/05/17 05:28:56;;;;;;;;;;;;;;;14.75;61.3623;102111.2;;;;-82
2022/05/17 05:30:49;;;;;;;7.1;1.8;;;;;;;;;;;;;-82
2022/05/17 05:33:56;;;;;;;;;;;;;;;14.92;60.82422;102104.4;;;;-81
2022/05/17 05:38:56;;;;;;;;;;;;;;;15.05;60.60645;102112.1;;;;-81
2022/05/17 05:43:58;;;;;;;;;;;;;;;15.15;60.57422;102118.7;;;;-80
2022/05/17 05:48:56;;;;;;;;;;;;;;;15.26;60.79199;102117.2;;;;-81
2022/05/17 05:53:56;;;;;;;;;;;;;;;15.38;61.25977;102119.5;;;;-82
2022/05/17 05:58:56;;;;;;;;;;;;;;;15.52;60.74902;102122.8;;;;-83
2022/05/17 06:00:51;;;;;;;6.8;1.7;;;;;;;;;;;;;-81
2022/05/17 06:03:58;;;;;;;;;;;;;;;15.64;60.73145;102124.3;;;;-84
2022/05/17 06:08:56;;;;;;;;;;;;;;;15.74;60.64453;102129.2;;;;-82
2022/05/17 06:13:58;;;;;;;;;;;;;;;15.87;61.37012;102135.8;;;;-81
2022/05/17 06:18:57;;;;;;;;;;;;;;;15.97;61.6123;102135.7;;;;-83
2022/05/17 06:23:56;;;;;;;;;;;;;;;16.1;61.45898;102140.6;;;;-82
2022/05/17 06:28:59;;;;;;;;;;;;;;;16.26;61.13281;102140.3;;;;-79
2022/05/17 06:30:53;;;;;;;5.2;1.7;;;;;;;;;;;;;-82
2022/05/17 06:33:57;;;;;;;;;;;;;;;16.51;61.15527;102140.3;;;;-82
2022/05/17 06:39:02;;;;;;;;;;;;;;;16.98;60.31836;102138.1;;;;-80
2022/05/17 06:43:59;;;;;;;;;;;;;;;17.68;58.91895;102139;;;;-82
2022/05/17 06:49:07;;;;;;;;;;;;;;;18.16;57.65723;102134.7;;;;-83
2022/05/17 06:53:58;;;;;;;;;;;;;;;18.41;56.96484;102135.8;;;;-82
2022/05/17 06:59:00;;;;;;;;;;;;;;;18.54;56.52539;102138.6;;;;-83
2022/05/17 07:00:56;;;;;;;7.1;1.7;;;;;;;;;;;;;-82
2022/05/17 07:03:56;;;;;;;;;;;;;;;18.58;56.58789;102146.5;;;;-82
2022/05/17 07:08:57;;;;;;;;;;;;;;;18.62;56.34277;102145.1;;;;-83
2022/05/17 07:13:59;;;;;;;;;;;;;;;18.62;56.06055;102149.9;;;;-81
2022/05/17 07:18:59;;;;;;;;;;;;;;;18.6;56.00195;102150.5;;;;-82
2022/05/17 07:23:56;;;;;;;;;;;;;;;18.59;55.8291;102155.4;;;;-82
2022/05/17 07:28:56;;;;;;;;;;;;;;;18.57;55.82813;102156.4;;;;-82
2022/05/17 07:31:00;;;;;;;6.8;1.5;;;;;;;;;;;;;-82
2022/05/17 07:33:58;;;;;;;;;;;;;;;18.56;55.75781;102159;;;;-81
2022/05/17 07:38:57;;;;;;;;;;;;;;;18.57;55.83691;102162.6;;;;-81
2022/05/17 07:44:01;;;;;;;;;;;;;;;18.58;55.75977;102163.5;;;;-82
2022/05/17 07:49:01;;;;;;;;;;;;;;;18.62;55.70898;102170.4;;;;-83
2022/05/17 07:54:00;;;;;;;;;;;;;;;18.71;55.51465;102167.6;;;;-82
2022/05/17 07:58:56;;;;;;;;;;;;;;;18.85;55.1123;102171.4;;;;-83
2022/05/17 08:01:01;;;;;;;4.6;1.3;;;;;;;;;;;;;-80
2022/05/17 08:03:56;;;;;;;;;;;;;;;19.04;54.66895;102167.2;;;;-83
2022/05/17 08:08:56;;;;;;;;;;;;;;;19.24;54.46582;102168.5;;;;-80
2022/05/17 08:13:57;;;;;;;;;;;;;;;19.4;53.98535;102164.4;;;;-81
2022/05/17 08:18:56;;;;;;;;;;;;;;;19.51;53.70313;102178.3;;;;-83
2022/05/17 08:23:56;;;;;;;;;;;;;;;19.63;53.31836;102180.1;;;;-83
2022/05/17 08:28:56;;;;;;;;;;;;;;;19.72;53.08984;102183;;;;-82
2022/05/17 08:31:10;;;;;;;5.1;1.2;;;;;;;;;;;;;-83
2022/05/17 08:33:56;;;;;;;;;;;;;;;19.86;52.86719;102182.7;;;;-82
2022/05/17 08:38:56;;;;;;;;;;;;;;;20.02;52.61328;102174;;;;-81
2022/05/17 08:43:59;;;;;;;;;;;;;;;20.21;52.16797;102173.4;;;;-84
2022/05/17 08:48:57;;;;;;;;;;;;;;;20.39;51.70996;102172.1;;;;-83
2022/05/17 08:53:56;;;;;;;;;;;;;;;20.57;51.27441;102165.9;;;;-82
2022/05/17 08:58:56;;;;;;;;;;;;;;;20.68;51.01172;102167.2;;;;-82
2022/05/17 09:01:08;;;;;;;6.4;1.3;;;;;;;;;;;;;-81
2022/05/17 09:04:04;;;;;;;;;;;;;;;20.78;50.80762;102174;;;;-81
2022/05/17 09:09:01;;;;;;;;;;;;;;;20.85;50.59766;102170.7;;;;-83
2022/05/17 09:14:02;;;;;;;;;;;;;;;20.9;50.68359;102174.3;;;;-84
2022/05/17 09:18:56;;;;;;;;;;;;;;;20.94;50.58496;102169.9;;;;-82
2022/05/17 09:23:56;;;;;;;;;;;;;;;20.99;50.44141;102164.3;;;;-84
2022/05/17 09:29:06;;;;;;;;;;;;;;;21.04;50.3916;102164.1;;;;-83
2022/05/17 09:31:16;;;;;;;4.9;1.5;;;;;;;;;;;;;-81
2022/05/17 09:34:00;;;;;;;;;;;;;;;21.11;50.16992;102164.5;;;;-84
2022/05/17 09:38:57;;;;;;;;;;;;;;;21.18;50.02832;102164.1;;;;-81
2022/05/17 09:44:02;;;;;;;;;;;;;;;21.23;49.90918;102166.6;;;;-83
2022/05/17 09:53:56;;;;;;;;;;;;;;;21.38;49.59277;102167;;;;-81
2022/05/17 09:58:56;;;;;;;;;;;;;;;21.46;49.60254;102169.8;;;;-81
2022/05/17 10:01:16;;;;;;;7;1.5;;;;;;;;;;;;;-82
2022/05/17 10:04:08;;;;;;;;;;;;;;;21.55;49.64648;102165.9;;;;-82
2022/05/17 10:09:07;;;;;;;;;;;;;;;21.7;49.76563;102161.4;;;;-83
2022/05/17 10:14:09;;;;;;;;;;;;;;;21.92;49.61914;102153.7;;;;-84
2022/05/17 10:18:58;;;;;;;;;;;;;;;22.18;49.1084;102154.3;;;;-83
2022/05/17 10:23:59;;;;;;;;;;;;;;;22.54;48.5293;102156.2;;;;-84
2022/05/17 10:29:04;;;;;;;;;;;;;;;22.93;48.11133;102152.3;;;;-83
2022/05/17 10:31:17;;;;;;;8.6;1.8;;;;;;;;;;;;;-82
2022/05/17 10:34:08;;;;;;;;;;;;;;;23.4;48.13867;102151.4;;;;-84
2022/05/17 10:39:00;;;;;;;;;;;;;;;23.85;47.24316;102144.8;;;;-82
2022/05/17 10:43:56;;;;;;;;;;;;;;;24.34;47.11035;102145.2;;;;-84
2022/05/17 10:49:01;;;;;;;;;;;;;;;24.81;47.125;102143;;;;-82
2022/05/17 10:54:03;;;;;;;;;;;;;;;25.28;46.85059;102142.3;;;;-83
2022/05/17 10:59:01;;;;;;;;;;;;;;;25.89;47.03027;102138;;;;-85
2022/05/17 11:01:20;;;;;;;7.9;1.8;;;;;;;;;;;;;-83
2022/05/17 11:04:06;;;;;;;;;;;;;;;26.46;46.64844;102128.4;;;;-84
2022/05/17 11:09:00;;;;;;;;;;;;;;;26.93;46.59277;102124.8;;;;-83
2022/05/17 11:14:00;;;;;;;;;;;;;;;27.34;46.77539;102116.9;;;;-82
2022/05/17 11:18:59;;;;;;;;;;;;;;;27.77;46.34277;102112.7;;;;-84
2022/05/17 11:24:00;;;;;;;;;;;;;;;28.19;45.93262;102109;;;;-85
2022/05/17 11:29:04;;;;;;;;;;;;;;;28.53;45.74414;102110.8;;;;-82
2022/05/17 11:31:27;;;;;;;5.7;1.7;;;;;;;;;;;;;-83
2022/05/17 11:33:56;;;;;;;;;;;;;;;28.85;45.56738;102110;;;;-82
2022/05/17 11:39:00;;;;;;;;;;;;;;;29.15;45.20117;102103.3;;;;-84
2022/05/17 11:44:06;;;;;;;;;;;;;;;29.39;44.85254;102105.4;;;;-83
2022/05/17 11:49:03;;;;;;;;;;;;;;;29.64;45.05176;102095.5;;;;-85
2022/05/17 11:53:58;;;;;;;;;;;;;;;29.89;44.72559;102098.1;;;;-82
2022/05/17 11:58:57;;;;;;;;;;;;;;;30.1;44.87598;102092.5;;;;-83
2022/05/17 12:01:37;;;;;;;4.6;1.5;;;;;;;;;;;;;-83
2022/05/17 12:03:57;;;;;;;;;;;;;;;30.37;43.31152;102083.2;;;;-84
2022/05/17 12:08:59;;;;;;;;;;;;;;;30.61;43.99023;102076.2;;;;-84
2022/05/17 12:13:58;;;;;;;;;;;;;;;30.84;43.36816;102072.9;;;;-83
2022/05/17 12:19:00;;;;;;;;;;;;;;;31.02;42.90527;102072.4;;;;-83
2022/05/17 12:24:02;;;;;;;;;;;;;;;31.12;43.27734;102068.3;;;;-83
2022/05/17 12:30:52;;;;;;;;;;;;;;;31.28;42.64746;102067;;;;-84
2022/05/17 12:31:31;;;;;;;4.4;1.1;;;;;;;;;;;;;-85
2022/05/17 12:33:57;;;;;;;;;;;;;;;31.44;42.4043;102067.3;;;;-83
2022/05/17 12:43:56;;;;;;;;;;;;;;;31.73;41.62207;102061.2;;;;-82
2022/05/17 12:48:57;;;;;;;;;;;;;;;31.91;41.29688;102059.3;;;;-84
2022/05/17 12:54:03;;;;;;;;;;;;;;;32.05;41.6748;102050.1;;;;-85
2022/05/17 12:58:57;;;;;;;;;;;;;;;32.06;40.37109;102047.3;;;;-83
2022/05/17 13:01:37;;;;;;;4.4;1.6;;;;;;;;;;;;;-83
2022/05/17 13:03:57;;;;;;;;;;;;;;;32.14;40.40137;102048.6;;;;-83
2022/05/17 13:09:01;;;;;;;;;;;;;;;32.19;40.86523;102044.4;;;;-84
2022/05/17 13:13:59;;;;;;;;;;;;;;;32.24;41.50391;102048.8;;;;-84
2022/05/17 13:18:58;;;;;;;;;;;;;;;32.36;41.16113;102040.6;;;;-82
2022/05/17 13:28:59;;;;;;;;;;;;;;;32.49;41.02148;102037.3;;;;-82
2022/05/17 13:31:41;;;;;;;5.8;2;;;;;;;;;;;;;-85
2022/05/17 13:34:05;;;;;;;;;;;;;;;32.39;41.50488;102035.2;;;;-83
2022/05/17 13:38:57;;;;;;;;;;;;;;;32.24;41.43359;102037.8;;;;-83
2022/05/17 13:44:00;;;;;;;;;;;;;;;32.01;41.16504;102036.9;;;;-83
2022/05/17 13:49:08;;;;;;;;;;;;;;;31.8;41.36914;102030.4;;;;-84
2022/05/17 13:59:09;;;;;;;;;;;;;;;31.39;40.94531;102015.1;;;;-86
2022/05/17 14:01:54;;;;;;;5.6;2.1;;;;;;;;;;;;;-83
2022/05/17 14:04:10;;;;;;;;;;;;;;;31.26;41.02734;102003.5;;;;-86
2022/05/17 14:14:03;;;;;;;;;;;;;;;31.11;40.50977;101987.5;;;;-86
2022/05/17 14:18:57;;;;;;;;;;;;;;;31.16;40.24414;101987.7;;;;-84
2022/05/17 14:23:56;;;;;;;;;;;;;;;31.18;39.62402;101985.8;;;;-77
2022/05/17 14:28:55;;;;;;;;;;;;;;;31.22;39.41699;101976.1;;;;-75
2022/05/17 14:31:50;;;;;;;7.2;2.5;;;;;;;;;;;;;-74
2022/05/17 14:33:59;;;;;;;;;;;;;;;31.2;39.48535;101972.9;;;;-76
2022/05/17 14:38:59;;;;;;;;;;;;;;;31.11;39.53711;101974;;;;-76
2022/05/17 14:43:55;;;;;;;;;;;;;;;31.01;39.66895;101971.8;;;;-75
2022/05/17 14:48:56;;;;;;;;;;;;;;;30.92;40.00098;101966;;;;-75
2022/05/17 14:53:55;;;;;;;;;;;;;;;30.93;39.41504;101958.9;;;;-74
2022/05/17 14:58:55;;;;;;;;;;;;;;;31;39.375;101944.1;;;;-75
2022/05/17 15:01:56;;;;;;;6.4;2.3;;;;;;;;;;;;;-74
2022/05/17 15:03:58;;;;;;;;;;;;;;;31.1;38.84277;101942.7;;;;-75
2022/05/17 15:08:59;;;;;;;;;;;;;;;31.09;38.95996;101933.4;;;;-76
2022/05/17 15:13:56;;;;;;;;;;;;;;;30.99;38.88086;101929.2;;;;-77
2022/05/17 15:18:56;;;;;;;;;;;;;;;30.89;39.12988;101926.3;;;;-78
2022/05/17 15:23:56;;;;;;;;;;;;;;;30.75;39.33984;101923.7;;;;-77
2022/05/17 15:28:56;;;;;;;;;;;;;;;30.53;39.40527;101921.1;;;;-77
2022/05/17 15:32:04;;;;;;;7.5;1.9;;;;;;;;;;;;;-78
2022/05/17 15:33:56;;;;;;;;;;;;;;;30.39;39.86035;101918;;;;-76
2022/05/17 15:38:56;;;;;;;;;;;;;;;30.24;39.64844;101917.7;;;;-77
2022/05/17 15:43:55;;;;;;;;;;;;;;;30.13;39.98926;101915.5;;;;-77
2022/05/17 15:53:55;;;;;;;;;;;;;;;30;39.86035;101899.3;;;;-77
2022/05/17 15:58:55;;;;;;;;;;;;;;;29.99;39.68457;101904.6;;;;-77
2022/05/17 16:02:07;;;;;;;5.6;1.7;;;;;;;;;;;;;-78
2022/05/17 16:04:54;;;;;;;;;;;;;;;29.84;39.80078;101898.9;;;;-76
2022/05/17 16:08:55;;;;;;;;;;;;;;;29.69;40.43066;101899.5;;;;-78
2022/05/17 16:13:55;;;;;;;;;;;;;;;29.56;40.59473;101892.8;;;;-78
2022/05/17 16:18:57;;;;;;;;;;;;;;;29.49;40.50684;101898.5;;;;-78
2022/05/17 16:23:55;;;;;;;;;;;;;;;29.45;40.19824;101897.7;;;;-78
2022/05/17 16:28:55;;;;;;;;;;;;;;;29.38;40.18164;101896.4;;;;-78
2022/05/17 16:32:10;;;;;;;5.5;1.8;;;;;;;;;;;;;-77
2022/05/17 16:33:55;;;;;;;;;;;;;;;29.22;40.33008;101896.6;;;;-77
2022/05/17 16:38:56;;;;;;;;;;;;;;;29.07;40.67871;101893.4;;;;-77
2022/05/17 16:43:55;;;;;;;;;;;;;;;28.84;41.03125;101893;;;;-77
2022/05/17 16:48:56;;;;;;;;;;;;;;;28.61;41.2666;101888;;;;-77
2022/05/17 16:53:56;;;;;;;;;;;;;;;28.36;41.58301;101893.6;;;;-79
2022/05/17 16:58:55;;;;;;;;;;;;;;;28.16;41.71582;101890.7;;;;-79
2022/05/17 17:02:18;;;;;;;4.5;1.9;;;;;;;;;;;;;-79
2022/05/17 17:03:56;;;;;;;;;;;;;;;27.97;42.04785;101882.1;;;;-77
2022/05/17 17:08:55;;;;;;;;;;;;;;;27.84;42.01172;101883.6;;;;-76
2022/05/17 17:13:55;;;;;;;;;;;;;;;27.69;41.90527;101886.1;;;;-77
2022/05/17 17:18:57;;;;;;;;;;;;;;;27.52;42.23828;101883.5;;;;-78
2022/05/17 17:23:57;;;;;;;;;;;;;;;27.3;42.32227;101875.5;;;;-78
2022/05/17 17:28:55;;;;;;;;;;;;;;;27.11;42.83887;101870.5;;;;-78
2022/05/17 17:38:55;;;;;;;;;;;;;;;26.71;42.56738;101863;;;;-78
2022/05/17 17:43:56;;;;;;;;;;;;;;;26.5;42.75781;101862.4;;;;-79
2022/05/17 17:48:56;;;;;;;;;;;;;;;26.31;42.75098;101856.5;;;;-79
2022/05/17 17:53:58;;;;;;;;;;;;;;;26.12;42.78027;101847.7;;;;-79
2022/05/17 17:58:56;;;;;;;;;;;;;;;25.93;42.99316;101841.1;;;;-79
2022/05/17 18:02:21;;;;;;;9.1;2.3;;;;;;;;;;;;;-77
2022/05/17 18:03:55;;;;;;;;;;;;;;;25.75;43.17188;101842.2;;;;-78
2022/05/17 18:08:55;;;;;;;;;;;;;;;25.58;43.37695;101839.7;;;;-77
2022/05/17 18:13:56;;;;;;;;;;;;;;;25.43;43.65137;101849.9;;;;-77
2022/05/17 18:18:55;;;;;;;;;;;;;;;25.29;43.85645;101843;;;;-79
2022/05/17 18:23:58;;;;;;;;;;;;;;;25.16;43.97168;101846.3;;;;-78
2022/05/17 18:28:56;;;;;;;;;;;;;;;25.02;44.28223;101849.6;;;;-76
2022/05/17 18:32:27;;;;;;;4.5;2.5;;;;;;;;;;;;;-79
2022/05/17 18:33:56;;;;;;;;;;;;;;;24.89;44.58203;101850.7;;;;-78
2022/05/17 18:38:56;;;;;;;;;;;;;;;24.76;44.75293;101853.4;;;;-84
2022/05/17 18:43:56;;;;;;;;;;;;;;;24.62;44.84375;101858.9;;;;-84
2022/05/17 18:48:57;;;;;;;;;;;;;;;24.48;45.17578;101858.5;;;;-84
2022/05/17 18:53:57;;;;;;;;;;;;;;;24.34;45.27637;101860.5;;;;-83
2022/05/17 18:58:57;;;;;;;;;;;;;;;24.19;45.39941;101861.3;;;;-83
2022/05/17 19:02:30;;;;;;;5.9;2.4;;;;;;;;;;;;;-81
2022/05/17 19:03:56;;;;;;;;;;;;;;;24.04;45.56836;101863.3;;;;-84
2022/05/17 19:13:57;;;;;;;;;;;;;;;23.68;46.18945;101871.7;;;;-81
2022/05/17 19:18:57;;;;;;;;;;;;;;;23.51;46.30957;101870.5;;;;-84
2022/05/17 19:24:01;;;;;;;;;;;;;;;23.32;46.79688;101866.9;;;;-85
2022/05/17 19:28:56;;;;;;;;;;;;;;;23.14;46.96191;101873.1;;;;-82
2022/05/17 19:32:33;;;;;;;7.7;3.9;;;;;;;;;;;;;-85
2022/05/17 19:33:57;;;;;;;;;;;;;;;22.98;47.27734;101882.6;;;;-84
2022/05/17 19:43:57;;;;;;;;;;;;;;;22.63;47.93066;101871.4;;;;-84
2022/05/17 19:48:56;;;;;;;;;;;;;;;22.47;48.18848;101870.4;;;;-83
2022/05/17 19:53:55;;;;;;;;;;;;;;;22.32;48.48242;101871.2;;;;-83
2022/05/17 19:58:56;;;;;;;;;;;;;;;22.17;48.88965;101877.5;;;;-84
2022/05/17 20:02:35;;;;;;;8.7;3.6;;;;;;;;;;;;;-82
2022/05/17 20:03:55;;;;;;;;;;;;;;;22.04;48.89844;101880.7;;;;-83
2022/05/17 20:08:57;;;;;;;;;;;;;;;21.91;49.18262;101879.8;;;;-82
2022/05/17 20:13:57;;;;;;;;;;;;;;;21.79;49.59277;101881.2;;;;-83
2022/05/17 20:18:55;;;;;;;;;;;;;;;21.66;49.71582;101886.6;;;;-82
2022/05/17 20:23:57;;;;;;;;;;;;;;;21.55;49.93359;101877.5;;;;-83
2022/05/17 20:28:57;;;;;;;;;;;;;;;21.45;50.19727;101883;;;;-83
2022/05/17 20:32:39;;;;;;;6.5;2.8;;;;;;;;;;;;;-83
2022/05/17 20:33:59;;;;;;;;;;;;;;;21.36;50.39355;101885.3;;;;-82
2022/05/17 20:38:56;;;;;;;;;;;;;;;21.26;50.62207;101892;;;;-83
2022/05/17 20:43:59;;;;;;;;;;;;;;;21.18;50.58984;101886.7;;;;-83
2022/05/17 20:48:56;;;;;;;;;;;;;;;21.1;50.46484;101893.8;;;;-84
2022/05/17 20:53:58;;;;;;;;;;;;;;;20.97;50.97754;101886.2;;;;-81
2022/05/17 20:58:56;;;;;;;;;;;;;;;20.9;51.05957;101884;;;;-77
2022/05/17 21:02:43;;;;;;;6.9;2.7;;;;;;;;;;;;;-77
2022/05/17 21:03:58;;;;;;;;;;;;;;;20.8;51.4834;101882.3;;;;-78
2022/05/17 21:08:55;;;;;;;;;;;;;;;20.72;51.99902;101875.2;;;;-78
2022/05/17 21:13:56;;;;;;;;;;;;;;;20.63;51.73828;101881.2;;;;-77
2022/05/17 21:18:56;;;;;;;;;;;;;;;20.57;51.61719;101880.8;;;;-76
2022/05/17 21:23:55;;;;;;;;;;;;;;;20.49;51.75586;101887.2;;;;-78
2022/05/17 21:28:56;;;;;;;;;;;;;;;20.4;51.88184;101884.9;;;;-77
2022/05/17 21:32:43;;;;;;;5;2.7;;;;;;;;;;;;;-77
2022/05/17 21:33:57;;;;;;;;;;;;;;;20.29;52.40625;101883.5;;;;-79
2022/05/17 21:38:55;;;;;;;;;;;;;;;20.19;52.32715;101881.3;;;;-77
2022/05/17 21:43:55;;;;;;;;;;;;;;;20.09;52.55371;101889.9;;;;-77
2022/05/17 21:48:56;;;;;;;;;;;;;;;19.99;52.88379;101889.3;;;;-76
2022/05/17 21:53:55;;;;;;;;;;;;;;;19.89;53.17969;101891.1;;;;-77
2022/05/17 21:58:55;;;;;;;;;;;;;;;19.78;53.41699;101885.8;;;;-82
2022/05/17 22:02:47;;;;;;;7.3;3.2;;;;;;;;;;;;;-84
2022/05/17 22:03:55;;;;;;;;;;;;;;;19.67;53.44922;101882.4;;;;-82
2022/05/17 22:08:56;;;;;;;;;;;;;;;19.57;53.69922;101880.7;;;;-81
2022/05/17 22:13:56;;;;;;;;;;;;;;;19.48;54.09668;101876.8;;;;-83
2022/05/17 22:18:56;;;;;;;;;;;;;;;19.38;54.28906;101881.7;;;;-81
2022/05/17 22:23:56;;;;;;;;;;;;;;;19.27;54.2207;101884.4;;;;-82
2022/05/17 22:28:55;;;;;;;;;;;;;;;19.18;53.90137;101883.4;;;;-82
2022/05/17 22:32:49;;;;;;;7.2;3;;;;;;;;;;;;;-83
2022/05/17 22:33:56;;;;;;;;;;;;;;;19.09;54.08594;101881.1;;;;-83
2022/05/17 22:38:56;;;;;;;;;;;;;;;18.99;54.4248;101873.9;;;;-82
2022/05/17 22:43:56;;;;;;;;;;;;;;;18.89;54.26367;101879.9;;;;-82
2022/05/17 22:48:55;;;;;;;;;;;;;;;18.8;54.26465;101883;;;;-83
2022/05/17 22:53:58;;;;;;;;;;;;;;;18.71;54.57227;101876.2;;;;-84
2022/05/17 22:58:56;;;;;;;;;;;;;;;18.63;54.56152;101873.1;;;;-81
2022/05/17 23:02:51;;;;;;;6.9;3;;;;;;;;;;;;;-83
2022/05/17 23:03:56;;;;;;;;;;;;;;;18.54;54.77832;101873.5;;;;-82
2022/05/17 23:08:56;;;;;;;;;;;;;;;18.45;55.01758;101870.5;;;;-83
2022/05/17 23:13:56;;;;;;;;;;;;;;;18.35;55.41211;101865.3;;;;-83
2022/05/17 23:18:55;;;;;;;;;;;;;;;18.29;55.36035;101861.4;;;;-84
2022/05/17 23:23:55;;;;;;;;;;;;;;;18.2;55.83789;101860.6;;;;-81
2022/05/17 23:28:56;;;;;;;;;;;;;;;18.14;56.23633;101868.2;;;;-83
2022/05/17 23:32:54;;;;;;;8.1;3.5;;;;;;;;;;;;;-84
2022/05/17 23:33:57;;;;;;;;;;;;;;;18.08;56.54688;101880.9;;;;-83
2022/05/17 23:38:57;;;;;;;;;;;;;;;18;56.31152;101878.5;;;;-82
2022/05/17 23:43:56;;;;;;;;;;;;;;;17.92;56.33496;101888.8;;;;-83
2022/05/17 23:48:56;;;;;;;;;;;;;;;17.84;56.33496;101884.3;;;;-82
2022/05/17 23:53:55;;;;;;;;;;;;;;;17.77;56.85742;101886.5;;;;-81
2022/05/17 23:58:55;;;;;;;;;;;;;;;17.68;56.7002;101882.6;;;;-81
